KWYS/WYS METAR and TAF weather

Enter ICAO airport designator
Station Type Date Time Source
KWYS METAR 2019/06/27 04:25 UTC NOAA

KWYS 270425Z AUTO 00000KT 10SM CLR 09/10 A3006 RMK AO2


Station Type Date Time Source
KWYS Decoded METAR 2019/06/27 04:25 UTC NOAA

West Yellowstone, MT, United States (KWYS) 44-41N 111-07W
Jun 27, 2019 - 12:25 AM EDT / 2019.06.27 0425 UTC
Wind: Calm:0
Visibility: 10 mile(s):0
Sky conditions: clear
Temperature: 48 F (9 C)
Dew Point: 50 F (10 C)
Relative Humidity: 106%
Pressure (altimeter): 30.06 in. Hg (1017 hPa)
ob: KWYS 270425Z AUTO 00000KT 10SM CLR 09/10 A3006 RMK AO2
cycle: 4

Station Type Date Time Source
KWYS TAF UTC NOAA

Error!

Example: see airport list